sensor_id;sensor_type;location;lat;lon;timestamp;temperature;humidity
66088;DHT22;52872;52.994;6.940;2023-03-20T00:01:11;11.10;99.90
66088;DHT22;52872;52.994;6.940;2023-03-20T00:03:39;11.10;99.90
66088;DHT22;52872;52.994;6.940;2023-03-20T00:06:14;11.10;99.90
66088;DHT22;52872;52.994;6.940;2023-03-20T00:08:43;11.10;99.90
66088;DHT22;52872;52.994;6.940;2023-03-20T00:11:32;11.10;99.90
66088;DHT22;52872;52.994;6.940;2023-03-20T00:14:02;11.20;99.90
66088;DHT22;52872;52.994;6.940;2023-03-20T00:16:32;11.10;99.90
66088;DHT22;52872;52.994;6.940;2023-03-20T00:19:00;11.10;99.90
66088;DHT22;52872;52.994;6.940;2023-03-20T00:21:27;11.10;99.90
66088;DHT22;52872;52.994;6.940;2023-03-20T00:23:55;11.10;99.90
66088;DHT22;52872;52.994;6.940;2023-03-20T00:26:26;11.10;99.90
66088;DHT22;52872;52.994;6.940;2023-03-20T00:28:54;11.10;99.90
66088;DHT22;52872;52.994;6.940;2023-03-20T00:31:31;11.10;99.90
66088;DHT22;52872;52.994;6.940;2023-03-20T00:34:00;11.20;99.90
66088;DHT22;52872;52.994;6.940;2023-03-20T00:36:28;11.10;99.90
66088;DHT22;52872;52.994;6.940;2023-03-20T00:38:55;11.10;99.90
66088;DHT22;52872;52.994;6.940;2023-03-20T00:41:41;11.10;99.90
66088;DHT22;52872;52.994;6.940;2023-03-20T00:46:53;11.10;99.90
66088;DHT22;52872;52.994;6.940;2023-03-20T00:49:31;11.10;99.90
66088;DHT22;52872;52.994;6.940;2023-03-20T00:51:59;11.10;99.90
66088;DHT22;52872;52.994;6.940;2023-03-20T00:54:27;11.00;99.90
66088;DHT22;52872;52.994;6.940;2023-03-20T00:57:04;11.00;99.90
66088;DHT22;52872;52.994;6.940;2023-03-20T00:59:35;11.00;99.90
66088;DHT22;52872;52.994;6.940;2023-03-20T01:02:03;11.00;99.90
66088;DHT22;52872;52.994;6.940;2023-03-20T01:04:41;10.90;99.90
66088;DHT22;52872;52.994;6.940;2023-03-20T01:07:13;11.00;99.90
66088;DHT22;52872;52.994;6.940;2023-03-20T01:09:40;11.00;99.90
66088;DHT22;52872;52.994;6.940;2023-03-20T01:12:10;10.90;99.90
66088;DHT22;52872;52.994;6.940;2023-03-20T01:14:40;10.90;99.90
66088;DHT22;52872;52.994;6.940;2023-03-20T01:17:18;10.90;99.90
66088;DHT22;52872;52.994;6.940;2023-03-20T01:19:45;10.90;99.90
66088;DHT22;52872;52.994;6.940;2023-03-20T01:22:12;10.90;99.90
66088;DHT22;52872;52.994;6.940;2023-03-20T01:24:48;10.90;99.90
66088;DHT22;52872;52.994;6.940;2023-03-20T01:27:17;10.90;99.90
66088;DHT22;52872;52.994;6.940;2023-03-20T01:29:45;10.90;99.90
66088;DHT22;52872;52.994;6.940;2023-03-20T01:32:17;10.90;99.90
66088;DHT22;52872;52.994;6.940;2023-03-20T01:34:48;10.90;99.90
66088;DHT22;52872;52.994;6.940;2023-03-20T01:37:24;10.80;99.90
66088;DHT22;52872;52.994;6.940;2023-03-20T01:39:52;10.90;99.90
66088;DHT22;52872;52.994;6.940;2023-03-20T01:42:19;10.80;99.90
66088;DHT22;52872;52.994;6.940;2023-03-20T01:44:47;10.90;99.90
66088;DHT22;52872;52.994;6.940;2023-03-20T01:47:17;10.80;99.90
66088;DHT22;52872;52.994;6.940;2023-03-20T01:50:27;10.80;99.90
66088;DHT22;52872;52.994;6.940;2023-03-20T01:53:15;10.80;99.90
66088;DHT22;52872;52.994;6.940;2023-03-20T01:55:51;10.70;99.90
66088;DHT22;52872;52.994;6.940;2023-03-20T01:58:27;10.70;99.90
66088;DHT22;52872;52.994;6.940;2023-03-20T02:00:58;10.70;99.90
66088;DHT22;52872;52.994;6.940;2023-03-20T02:03:25;10.60;99.90
66088;DHT22;52872;52.994;6.940;2023-03-20T02:06:12;10.60;99.90
66088;DHT22;52872;52.994;6.940;2023-03-20T02:09:05;10.60;99.90
66088;DHT22;52872;52.994;6.940;2023-03-20T02:11:39;10.60;99.90
66088;DHT22;52872;52.994;6.940;2023-03-20T02:14:07;10.60;99.90
66088;DHT22;52872;52.994;6.940;2023-03-20T02:16:44;10.60;99.90
66088;DHT22;52872;52.994;6.940;2023-03-20T02:19:33;10.60;99.90
66088;DHT22;52872;52.994;6.940;2023-03-20T02:27:50;10.60;99.90
66088;DHT22;52872;52.994;6.940;2023-03-20T02:46:50;10.60;99.90
66088;DHT22;52872;52.994;6.940;2023-03-20T02:52:19;10.50;99.90
66088;DHT22;52872;52.994;6.940;2023-03-20T02:58:29;10.50;99.90
66088;DHT22;52872;52.994;6.940;2023-03-20T03:03:27;10.40;99.90
66088;DHT22;52872;52.994;6.940;2023-03-20T03:06:06;10.40;99.90
66088;DHT22;52872;52.994;6.940;2023-03-20T03:08:38;10.40;99.90
66088;DHT22;52872;52.994;6.940;2023-03-20T03:11:08;10.40;99.90
66088;DHT22;52872;52.994;6.940;2023-03-20T03:13:39;10.40;99.90
66088;DHT22;52872;52.994;6.940;2023-03-20T03:16:13;10.40;99.90
66088;DHT22;52872;52.994;6.940;2023-03-20T03:18:44;10.40;99.90
66088;DHT22;52872;52.994;6.940;2023-03-20T03:21:15;10.40;99.90
66088;DHT22;52872;52.994;6.940;2023-03-20T03:23:47;10.40;99.90
66088;DHT22;52872;52.994;6.940;2023-03-20T03:26:24;10.40;99.90
66088;DHT22;52872;52.994;6.940;2023-03-20T03:28:59;10.40;99.90
66088;DHT22;52872;52.994;6.940;2023-03-20T03:31:28;10.40;99.90
66088;DHT22;52872;52.994;6.940;2023-03-20T03:33:59;10.40;99.90
66088;DHT22;52872;52.994;6.940;2023-03-20T03:47:38;10.40;99.90
66088;DHT22;52872;52.994;6.940;2023-03-20T03:50:19;10.20;99.90
66088;DHT22;52872;52.994;6.940;2023-03-20T03:52:49;10.30;99.90
66088;DHT22;52872;52.994;6.940;2023-03-20T03:55:24;10.20;99.90
66088;DHT22;52872;52.994;6.940;2023-03-20T03:58:07;10.30;99.90
66088;DHT22;52872;52.994;6.940;2023-03-20T04:00:36;10.30;99.90
66088;DHT22;52872;52.994;6.940;2023-03-20T04:03:07;10.30;99.90
66088;DHT22;52872;52.994;6.940;2023-03-20T04:05:37;10.30;99.90
66088;DHT22;52872;52.994;6.940;2023-03-20T04:08:06;10.30;99.90
66088;DHT22;52872;52.994;6.940;2023-03-20T04:10:33;10.30;99.90
66088;DHT22;52872;52.994;6.940;2023-03-20T04:13:01;10.30;99.90
66088;DHT22;52872;52.994;6.940;2023-03-20T04:15:27;10.30;99.90
66088;DHT22;52872;52.994;6.940;2023-03-20T04:17:54;10.30;99.90
66088;DHT22;52872;52.994;6.940;2023-03-20T04:20:22;10.20;99.90
66088;DHT22;52872;52.994;6.940;2023-03-20T04:22:49;10.30;99.90
66088;DHT22;52872;52.994;6.940;2023-03-20T04:25:22;10.30;99.90
66088;DHT22;52872;52.994;6.940;2023-03-20T04:27:52;10.30;99.90
66088;DHT22;52872;52.994;6.940;2023-03-20T04:30:31;10.30;99.90
66088;DHT22;52872;52.994;6.940;2023-03-20T04:33:06;10.30;99.90
66088;DHT22;52872;52.994;6.940;2023-03-20T04:35:52;10.30;99.90
66088;DHT22;52872;52.994;6.940;2023-03-20T04:38:19;10.30;99.90
66088;DHT22;52872;52.994;6.940;2023-03-20T04:40:48;10.30;99.90
66088;DHT22;52872;52.994;6.940;2023-03-20T04:43:15;10.20;99.90
66088;DHT22;52872;52.994;6.940;2023-03-20T04:45:42;10.20;99.90
66088;DHT22;52872;52.994;6.940;2023-03-20T04:48:09;10.20;99.90
66088;DHT22;52872;52.994;6.940;2023-03-20T04:50:36;10.30;99.90
66088;DHT22;52872;52.994;6.940;2023-03-20T04:53:04;10.20;99.90
66088;DHT22;52872;52.994;6.940;2023-03-20T04:55:31;10.30;99.90
66088;DHT22;52872;52.994;6.940;2023-03-20T04:57:59;10.20;99.90
66088;DHT22;52872;52.994;6.940;2023-03-20T05:00:27;10.20;99.90
66088;DHT22;52872;52.994;6.940;2023-03-20T05:02:54;10.20;99.90
66088;DHT22;52872;52.994;6.940;2023-03-20T05:05:22;10.20;99.90
66088;DHT22;52872;52.994;6.940;2023-03-20T05:07:50;10.20;99.90
66088;DHT22;52872;52.994;6.940;2023-03-20T05:10:31;10.20;99.90
66088;DHT22;52872;52.994;6.940;2023-03-20T05:13:05;10.10;99.90
66088;DHT22;52872;52.994;6.940;2023-03-20T05:15:49;10.10;99.90
66088;DHT22;52872;52.994;6.940;2023-03-20T05:18:27;10.10;99.90
66088;DHT22;52872;52.994;6.940;2023-03-20T05:21:17;10.10;99.90
66088;DHT22;52872;52.994;6.940;2023-03-20T05:24:04;10.00;99.90
66088;DHT22;52872;52.994;6.940;2023-03-20T05:26:47;10.00;99.90
66088;DHT22;52872;52.994;6.940;2023-03-20T05:29:43;10.00;99.90
66088;DHT22;52872;52.994;6.940;2023-03-20T05:32:42;10.00;99.90
66088;DHT22;52872;52.994;6.940;2023-03-20T05:35:28;9.90;99.90
66088;DHT22;52872;52.994;6.940;2023-03-20T05:38:04;10.00;99.90
66088;DHT22;52872;52.994;6.940;2023-03-20T05:40:56;10.00;99.90
66088;DHT22;52872;52.994;6.940;2023-03-20T05:43:36;10.00;99.90
66088;DHT22;52872;52.994;6.940;2023-03-20T05:46:18;10.00;99.90
66088;DHT22;52872;52.994;6.940;2023-03-20T05:49:17;10.00;99.90
66088;DHT22;52872;52.994;6.940;2023-03-20T05:52:10;10.00;99.90
66088;DHT22;52872;52.994;6.940;2023-03-20T05:54:56;10.00;99.90
66088;DHT22;52872;52.994;6.940;2023-03-20T05:57:33;10.00;99.90
66088;DHT22;52872;52.994;6.940;2023-03-20T06:00:26;10.00;99.90
66088;DHT22;52872;52.994;6.940;2023-03-20T06:03:11;10.00;99.90
66088;DHT22;52872;52.994;6.940;2023-03-20T06:05:55;10.10;99.90
66088;DHT22;52872;52.994;6.940;2023-03-20T06:08:22;10.00;99.90
66088;DHT22;52872;52.994;6.940;2023-03-20T06:10:50;10.10;99.90
66088;DHT22;52872;52.994;6.940;2023-03-20T06:13:17;10.10;99.90
66088;DHT22;52872;52.994;6.940;2023-03-20T06:15:45;10.10;99.90
66088;DHT22;52872;52.994;6.940;2023-03-20T06:18:15;10.10;99.90
66088;DHT22;52872;52.994;6.940;2023-03-20T06:20:42;10.10;99.90
66088;DHT22;52872;52.994;6.940;2023-03-20T06:23:09;10.10;99.90
66088;DHT22;52872;52.994;6.940;2023-03-20T06:25:36;10.20;99.90
66088;DHT22;52872;52.994;6.940;2023-03-20T06:28:05;10.20;99.90
66088;DHT22;52872;52.994;6.940;2023-03-20T06:30:32;10.20;99.90
66088;DHT22;52872;52.994;6.940;2023-03-20T06:32:59;10.20;99.90
66088;DHT22;52872;52.994;6.940;2023-03-20T06:35:35;10.30;99.90
66088;DHT22;52872;52.994;6.940;2023-03-20T06:38:03;10.30;99.90
66088;DHT22;52872;52.994;6.940;2023-03-20T06:40:31;10.40;99.90
66088;DHT22;52872;52.994;6.940;2023-03-20T06:42:58;10.40;99.90
66088;DHT22;52872;52.994;6.940;2023-03-20T06:45:35;10.40;99.90
66088;DHT22;52872;52.994;6.940;2023-03-20T06:48:09;10.50;99.90
66088;DHT22;52872;52.994;6.940;2023-03-20T06:50:37;10.40;99.90
66088;DHT22;52872;52.994;6.940;2023-03-20T06:53:04;10.50;99.90
66088;DHT22;52872;52.994;6.940;2023-03-20T06:55:45;10.50;99.90
66088;DHT22;52872;52.994;6.940;2023-03-20T06:58:12;10.60;99.90
66088;DHT22;52872;52.994;6.940;2023-03-20T07:00:39;10.70;99.90
66088;DHT22;52872;52.994;6.940;2023-03-20T07:03:07;10.70;99.90
66088;DHT22;52872;52.994;6.940;2023-03-20T07:05:36;10.80;99.90
66088;DHT22;52872;52.994;6.940;2023-03-20T07:08:07;10.90;99.90
66088;DHT22;52872;52.994;6.940;2023-03-20T07:10:35;11.00;99.90
66088;DHT22;52872;52.994;6.940;2023-03-20T07:13:03;11.00;99.90
66088;DHT22;52872;52.994;6.940;2023-03-20T07:15:30;11.10;99.90
66088;DHT22;52872;52.994;6.940;2023-03-20T07:17:58;11.10;99.90
66088;DHT22;52872;52.994;6.940;2023-03-20T07:20:26;11.20;99.90
66088;DHT22;52872;52.994;6.940;2023-03-20T07:22:53;11.20;99.90
66088;DHT22;52872;52.994;6.940;2023-03-20T07:25:24;11.30;99.90
66088;DHT22;52872;52.994;6.940;2023-03-20T07:28:07;11.30;99.90
66088;DHT22;52872;52.994;6.940;2023-03-20T07:30:37;11.30;99.90
66088;DHT22;52872;52.994;6.940;2023-03-20T07:33:04;11.30;99.90
66088;DHT22;52872;52.994;6.940;2023-03-20T07:35:33;11.40;99.90
66088;DHT22;52872;52.994;6.940;2023-03-20T07:38:01;11.40;99.90
66088;DHT22;52872;52.994;6.940;2023-03-20T07:40:28;11.40;99.90
66088;DHT22;52872;52.994;6.940;2023-03-20T07:42:58;11.50;99.90
66088;DHT22;52872;52.994;6.940;2023-03-20T07:45:49;11.60;99.90
66088;DHT22;52872;52.994;6.940;2023-03-20T07:48:18;11.60;99.90
66088;DHT22;52872;52.994;6.940;2023-03-20T07:50:45;11.70;99.90
66088;DHT22;52872;52.994;6.940;2023-03-20T07:53:12;11.80;99.90
66088;DHT22;52872;52.994;6.940;2023-03-20T07:55:39;11.80;99.90
66088;DHT22;52872;52.994;6.940;2023-03-20T07:58:09;11.90;99.90
66088;DHT22;52872;52.994;6.940;2023-03-20T08:00:36;12.00;99.90
66088;DHT22;52872;52.994;6.940;2023-03-20T08:03:03;12.10;99.90
66088;DHT22;52872;52.994;6.940;2023-03-20T08:05:30;12.20;99.90
66088;DHT22;52872;52.994;6.940;2023-03-20T08:07:58;12.20;99.90
66088;DHT22;52872;52.994;6.940;2023-03-20T08:10:25;12.30;99.90
66088;DHT22;52872;52.994;6.940;2023-03-20T08:12:52;12.40;99.90
66088;DHT22;52872;52.994;6.940;2023-03-20T08:15:19;12.50;99.90
66088;DHT22;52872;52.994;6.940;2023-03-20T08:17:46;12.50;99.90
66088;DHT22;52872;52.994;6.940;2023-03-20T08:20:15;12.60;99.90
66088;DHT22;52872;52.994;6.940;2023-03-20T08:22:45;12.70;99.90
66088;DHT22;52872;52.994;6.940;2023-03-20T08:25:13;12.70;99.90
66088;DHT22;52872;52.994;6.940;2023-03-20T08:27:41;12.80;99.90
66088;DHT22;52872;52.994;6.940;2023-03-20T08:30:08;12.90;99.90
66088;DHT22;52872;52.994;6.940;2023-03-20T08:32:35;13.00;99.90
66088;DHT22;52872;52.994;6.940;2023-03-20T08:35:03;13.00;99.90
66088;DHT22;52872;52.994;6.940;2023-03-20T08:37:30;13.10;99.90
66088;DHT22;52872;52.994;6.940;2023-03-20T08:39:57;13.20;99.90
66088;DHT22;52872;52.994;6.940;2023-03-20T08:42:24;13.30;99.90
66088;DHT22;52872;52.994;6.940;2023-03-20T08:44:51;13.40;99.90
66088;DHT22;52872;52.994;6.940;2023-03-20T08:47:18;13.60;99.90
66088;DHT22;52872;52.994;6.940;2023-03-20T08:49:45;13.70;99.90
66088;DHT22;52872;52.994;6.940;2023-03-20T08:52:12;13.80;99.90
66088;DHT22;52872;52.994;6.940;2023-03-20T08:54:39;13.90;99.90
66088;DHT22;52872;52.994;6.940;2023-03-20T08:57:06;14.00;99.90
66088;DHT22;52872;52.994;6.940;2023-03-20T08:59:33;14.00;99.90
66088;DHT22;52872;52.994;6.940;2023-03-20T09:02:01;14.10;99.90
66088;DHT22;52872;52.994;6.940;2023-03-20T09:04:28;14.10;99.90
66088;DHT22;52872;52.994;6.940;2023-03-20T09:06:55;14.20;99.90
66088;DHT22;52872;52.994;6.940;2023-03-20T09:09:22;14.30;99.90
66088;DHT22;52872;52.994;6.940;2023-03-20T09:11:57;14.40;99.90
66088;DHT22;52872;52.994;6.940;2023-03-20T09:14:26;14.50;99.90
66088;DHT22;52872;52.994;6.940;2023-03-20T09:16:53;14.70;99.90
66088;DHT22;52872;52.994;6.940;2023-03-20T09:19:20;14.70;99.90
66088;DHT22;52872;52.994;6.940;2023-03-20T09:21:47;14.80;99.90
66088;DHT22;52872;52.994;6.940;2023-03-20T09:24:14;14.80;99.90
66088;DHT22;52872;52.994;6.940;2023-03-20T09:26:42;14.70;99.90
66088;DHT22;52872;52.994;6.940;2023-03-20T09:29:09;14.80;99.90
66088;DHT22;52872;52.994;6.940;2023-03-20T09:31:36;14.90;99.90
66088;DHT22;52872;52.994;6.940;2023-03-20T09:34:03;15.00;99.90
66088;DHT22;52872;52.994;6.940;2023-03-20T09:36:30;15.00;99.90
66088;DHT22;52872;52.994;6.940;2023-03-20T09:38:57;15.10;99.90
66088;DHT22;52872;52.994;6.940;2023-03-20T09:41:25;15.30;99.90
66088;DHT22;52872;52.994;6.940;2023-03-20T09:47:37;15.80;99.90
66088;DHT22;52872;52.994;6.940;2023-03-20T09:55:32;16.20;99.50
66088;DHT22;52872;52.994;6.940;2023-03-20T09:58:24;16.40;99.20
66088;DHT22;52872;52.994;6.940;2023-03-20T10:00:55;16.50;98.00
66088;DHT22;52872;52.994;6.940;2023-03-20T10:06:17;16.70;98.10
66088;DHT22;52872;52.994;6.940;2023-03-20T10:08:45;16.70;98.40
66088;DHT22;52872;52.994;6.940;2023-03-20T10:14:26;17.00;97.40
66088;DHT22;52872;52.994;6.940;2023-03-20T10:22:22;17.00;97.70
66088;DHT22;52872;52.994;6.940;2023-03-20T10:24:53;17.10;96.90
66088;DHT22;52872;52.994;6.940;2023-03-20T10:27:43;17.10;97.00
66088;DHT22;52872;52.994;6.940;2023-03-20T10:33:02;17.30;96.60
66088;DHT22;52872;52.994;6.940;2023-03-20T10:38:49;17.30;96.30
66088;DHT22;52872;52.994;6.940;2023-03-20T10:41:20;17.50;95.90
66088;DHT22;52872;52.994;6.940;2023-03-20T10:43:50;17.60;95.90
66088;DHT22;52872;52.994;6.940;2023-03-20T10:46:23;17.70;95.80
66088;DHT22;52872;52.994;6.940;2023-03-20T10:48:59;17.80;95.80
66088;DHT22;52872;52.994;6.940;2023-03-20T10:51:50;17.90;95.30
66088;DHT22;52872;52.994;6.940;2023-03-20T10:54:38;17.90;95.00
66088;DHT22;52872;52.994;6.940;2023-03-20T10:57:13;17.50;95.20
66088;DHT22;52872;52.994;6.940;2023-03-20T10:59:45;17.30;95.70
66088;DHT22;52872;52.994;6.940;2023-03-20T11:02:18;17.00;96.00
66088;DHT22;52872;52.994;6.940;2023-03-20T11:04:46;16.80;96.40
66088;DHT22;52872;52.994;6.940;2023-03-20T11:09:47;16.40;96.90
66088;DHT22;52872;52.994;6.940;2023-03-20T11:12:38;16.10;97.30
66088;DHT22;52872;52.994;6.940;2023-03-20T11:15:30;16.00;97.70
66088;DHT22;52872;52.994;6.940;2023-03-20T11:18:03;15.80;97.80
66088;DHT22;52872;52.994;6.940;2023-03-20T11:20:37;15.60;98.10
66088;DHT22;52872;52.994;6.940;2023-03-20T11:23:06;15.40;98.60
66088;DHT22;52872;52.994;6.940;2023-03-20T11:25:37;15.20;99.10
66088;DHT22;52872;52.994;6.940;2023-03-20T11:28:25;15.10;99.30
66088;DHT22;52872;52.994;6.940;2023-03-20T11:31:19;15.00;99.50
66088;DHT22;52872;52.994;6.940;2023-03-20T11:34:23;14.80;99.80
66088;DHT22;52872;52.994;6.940;2023-03-20T11:37:00;14.70;99.90
66088;DHT22;52872;52.994;6.940;2023-03-20T11:39:53;14.60;99.90
66088;DHT22;52872;52.994;6.940;2023-03-20T11:42:25;14.60;99.90
66088;DHT22;52872;52.994;6.940;2023-03-20T11:45:15;14.70;99.90
66088;DHT22;52872;52.994;6.940;2023-03-20T11:47:47;14.90;99.90
66088;DHT22;52872;52.994;6.940;2023-03-20T11:50:33;14.90;99.90
66088;DHT22;52872;52.994;6.940;2023-03-20T11:53:03;15.00;99.60
66088;DHT22;52872;52.994;6.940;2023-03-20T11:55:58;15.00;99.90
66088;DHT22;52872;52.994;6.940;2023-03-20T11:58:25;15.10;99.90
66088;DHT22;52872;52.994;6.940;2023-03-20T12:00:54;15.10;99.70
66088;DHT22;52872;52.994;6.940;2023-03-20T12:06:01;15.20;99.50
66088;DHT22;52872;52.994;6.940;2023-03-20T12:08:30;15.10;99.30
66088;DHT22;52872;52.994;6.940;2023-03-20T12:11:44;15.10;99.40
66088;DHT22;52872;52.994;6.940;2023-03-20T12:14:46;15.00;99.20
66088;DHT22;52872;52.994;6.940;2023-03-20T12:25:56;14.50;99.90
66088;DHT22;52872;52.994;6.940;2023-03-20T12:28:27;14.40;99.90
66088;DHT22;52872;52.994;6.940;2023-03-20T12:34:46;14.20;99.90
66088;DHT22;52872;52.994;6.940;2023-03-20T12:37:15;14.20;99.90
66088;DHT22;52872;52.994;6.940;2023-03-20T12:39:53;14.10;99.90
66088;DHT22;52872;52.994;6.940;2023-03-20T12:45:15;14.10;99.90
66088;DHT22;52872;52.994;6.940;2023-03-20T12:50:40;14.10;99.90
66088;DHT22;52872;52.994;6.940;2023-03-20T12:59:15;14.00;99.90
66088;DHT22;52872;52.994;6.940;2023-03-20T13:01:57;14.00;99.90
66088;DHT22;52872;52.994;6.940;2023-03-20T13:04:58;13.90;99.90
66088;DHT22;52872;52.994;6.940;2023-03-20T13:10:32;13.90;99.90
66088;DHT22;52872;52.994;6.940;2023-03-20T13:13:17;14.10;99.90
66088;DHT22;52872;52.994;6.940;2023-03-20T13:18:53;14.50;99.90
66088;DHT22;52872;52.994;6.940;2023-03-20T13:21:40;14.40;99.90
66088;DHT22;52872;52.994;6.940;2023-03-20T13:24:43;14.50;99.90
66088;DHT22;52872;52.994;6.940;2023-03-20T13:38:27;14.30;99.90
66088;DHT22;52872;52.994;6.940;2023-03-20T13:41:03;14.10;99.90
66088;DHT22;52872;52.994;6.940;2023-03-20T13:43:51;14.10;99.90
66088;DHT22;52872;52.994;6.940;2023-03-20T13:46:30;13.90;99.90
66088;DHT22;52872;52.994;6.940;2023-03-20T13:49:12;13.70;99.90
66088;DHT22;52872;52.994;6.940;2023-03-20T13:51:54;13.70;99.90
66088;DHT22;52872;52.994;6.940;2023-03-20T13:55:28;13.70;99.90
66088;DHT22;52872;52.994;6.940;2023-03-20T13:57:57;13.60;99.90
66088;DHT22;52872;52.994;6.940;2023-03-20T14:05:48;13.40;99.90
66088;DHT22;52872;52.994;6.940;2023-03-20T14:13:32;13.30;99.90
66088;DHT22;52872;52.994;6.940;2023-03-20T14:16:02;13.30;99.90
66088;DHT22;52872;52.994;6.940;2023-03-20T14:18:30;13.30;99.90
66088;DHT22;52872;52.994;6.940;2023-03-20T14:20:59;13.30;99.90
66088;DHT22;52872;52.994;6.940;2023-03-20T14:23:56;13.20;99.90
66088;DHT22;52872;52.994;6.940;2023-03-20T14:26:28;13.20;99.90
66088;DHT22;52872;52.994;6.940;2023-03-20T14:31:39;13.20;99.90
66088;DHT22;52872;52.994;6.940;2023-03-20T14:34:15;13.00;99.90
66088;DHT22;52872;52.994;6.940;2023-03-20T14:50:52;12.80;99.90
66088;DHT22;52872;52.994;6.940;2023-03-20T14:53:25;12.80;99.90
66088;DHT22;52872;52.994;6.940;2023-03-20T15:01:02;12.50;99.90
66088;DHT22;52872;52.994;6.940;2023-03-20T15:03:31;12.50;99.90
66088;DHT22;52872;52.994;6.940;2023-03-20T15:06:00;12.40;99.90
66088;DHT22;52872;52.994;6.940;2023-03-20T15:08:31;12.40;99.90
66088;DHT22;52872;52.994;6.940;2023-03-20T15:11:04;12.40;99.90
66088;DHT22;52872;52.994;6.940;2023-03-20T15:13:34;12.40;99.90
66088;DHT22;52872;52.994;6.940;2023-03-20T15:16:07;12.40;99.90
66088;DHT22;52872;52.994;6.940;2023-03-20T15:18:40;12.50;99.90
66088;DHT22;52872;52.994;6.940;2023-03-20T15:21:15;12.40;99.90
66088;DHT22;52872;52.994;6.940;2023-03-20T15:23:44;12.50;99.90
66088;DHT22;52872;52.994;6.940;2023-03-20T15:26:16;12.60;99.90
66088;DHT22;52872;52.994;6.940;2023-03-20T15:28:45;12.50;99.90
66088;DHT22;52872;52.994;6.940;2023-03-20T15:31:23;12.50;99.90
66088;DHT22;52872;52.994;6.940;2023-03-20T15:33:51;12.40;99.90
66088;DHT22;52872;52.994;6.940;2023-03-20T15:36:21;12.20;99.90
66088;DHT22;52872;52.994;6.940;2023-03-20T15:38:49;12.10;99.90
66088;DHT22;52872;52.994;6.940;2023-03-20T15:41:33;12.00;99.90
66088;DHT22;52872;52.994;6.940;2023-03-20T15:49:36;11.90;99.90
66088;DHT22;52872;52.994;6.940;2023-03-20T15:52:15;11.80;99.90
66088;DHT22;52872;52.994;6.940;2023-03-20T15:54:45;11.80;99.90
66088;DHT22;52872;52.994;6.940;2023-03-20T15:57:24;11.80;99.90
66088;DHT22;52872;52.994;6.940;2023-03-20T15:59:51;11.90;99.90
66088;DHT22;52872;52.994;6.940;2023-03-20T16:02:19;11.80;99.90
66088;DHT22;52872;52.994;6.940;2023-03-20T16:04:51;11.80;99.90
66088;DHT22;52872;52.994;6.940;2023-03-20T16:07:27;11.80;99.90
66088;DHT22;52872;52.994;6.940;2023-03-20T16:09:55;11.80;99.90
66088;DHT22;52872;52.994;6.940;2023-03-20T16:12:22;11.70;99.90
66088;DHT22;52872;52.994;6.940;2023-03-20T16:14:50;11.70;99.90
66088;DHT22;52872;52.994;6.940;2023-03-20T16:17:19;11.70;99.90
66088;DHT22;52872;52.994;6.940;2023-03-20T16:19:47;11.60;99.90
66088;DHT22;52872;52.994;6.940;2023-03-20T16:24:53;11.70;99.90
66088;DHT22;52872;52.994;6.940;2023-03-20T16:27:27;11.60;99.90
66088;DHT22;52872;52.994;6.940;2023-03-20T16:29:55;11.60;99.90
66088;DHT22;52872;52.994;6.940;2023-03-20T16:32:36;11.50;99.90
66088;DHT22;52872;52.994;6.940;2023-03-20T16:35:12;11.50;99.90
66088;DHT22;52872;52.994;6.940;2023-03-20T16:37:53;11.40;99.90
66088;DHT22;52872;52.994;6.940;2023-03-20T16:42:54;11.30;99.90
66088;DHT22;52872;52.994;6.940;2023-03-20T16:45:27;11.20;99.90
66088;DHT22;52872;52.994;6.940;2023-03-20T16:50:44;11.20;99.90
66088;DHT22;52872;52.994;6.940;2023-03-20T16:53:15;11.20;99.90
66088;DHT22;52872;52.994;6.940;2023-03-20T16:55:47;11.10;99.90
66088;DHT22;52872;52.994;6.940;2023-03-20T16:58:19;11.10;99.90
66088;DHT22;52872;52.994;6.940;2023-03-20T17:03:33;11.00;99.90
66088;DHT22;52872;52.994;6.940;2023-03-20T17:08:49;10.90;99.90
66088;DHT22;52872;52.994;6.940;2023-03-20T17:11:30;10.80;99.90
66088;DHT22;52872;52.994;6.940;2023-03-20T17:13:59;10.90;99.90
66088;DHT22;52872;52.994;6.940;2023-03-20T17:16:26;10.80;99.90
66088;DHT22;52872;52.994;6.940;2023-03-20T17:19:04;10.80;99.90
66088;DHT22;52872;52.994;6.940;2023-03-20T17:21:33;10.90;99.90
66088;DHT22;52872;52.994;6.940;2023-03-20T17:24:00;10.80;99.90
66088;DHT22;52872;52.994;6.940;2023-03-20T17:26:27;10.80;99.90
66088;DHT22;52872;52.994;6.940;2023-03-20T17:28:54;10.80;99.90
66088;DHT22;52872;52.994;6.940;2023-03-20T17:31:21;10.80;99.90
66088;DHT22;52872;52.994;6.940;2023-03-20T17:33:48;10.80;99.90
66088;DHT22;52872;52.994;6.940;2023-03-20T17:36:27;10.80;99.90
66088;DHT22;52872;52.994;6.940;2023-03-20T17:38:56;10.80;99.90
66088;DHT22;52872;52.994;6.940;2023-03-20T17:41:24;10.80;99.90
66088;DHT22;52872;52.994;6.940;2023-03-20T17:43:52;10.80;99.90
66088;DHT22;52872;52.994;6.940;2023-03-20T17:46:25;10.70;99.90
66088;DHT22;52872;52.994;6.940;2023-03-20T17:49:09;10.70;99.90
66088;DHT22;52872;52.994;6.940;2023-03-20T17:51:37;10.80;99.90
66088;DHT22;52872;52.994;6.940;2023-03-20T17:54:04;10.70;99.90
66088;DHT22;52872;52.994;6.940;2023-03-20T17:56:31;10.70;99.90
66088;DHT22;52872;52.994;6.940;2023-03-20T17:58:59;10.70;99.90
66088;DHT22;52872;52.994;6.940;2023-03-20T18:01:27;10.80;99.90
66088;DHT22;52872;52.994;6.940;2023-03-20T18:03:58;10.70;99.90
66088;DHT22;52872;52.994;6.940;2023-03-20T18:06:30;10.80;99.90
66088;DHT22;52872;52.994;6.940;2023-03-20T18:08:58;10.80;99.90
66088;DHT22;52872;52.994;6.940;2023-03-20T18:11:26;10.80;99.90
66088;DHT22;52872;52.994;6.940;2023-03-20T18:13:53;10.80;99.90
66088;DHT22;52872;52.994;6.940;2023-03-20T18:16:25;10.80;99.90
66088;DHT22;52872;52.994;6.940;2023-03-20T18:18:53;10.80;99.90
66088;DHT22;52872;52.994;6.940;2023-03-20T18:21:20;10.80;99.90
66088;DHT22;52872;52.994;6.940;2023-03-20T18:23:47;10.80;99.90
66088;DHT22;52872;52.994;6.940;2023-03-20T18:26:21;10.80;99.90
66088;DHT22;52872;52.994;6.940;2023-03-20T18:28:50;10.80;99.90
66088;DHT22;52872;52.994;6.940;2023-03-20T18:31:17;10.80;99.90
66088;DHT22;52872;52.994;6.940;2023-03-20T18:33:46;10.80;99.90
66088;DHT22;52872;52.994;6.940;2023-03-20T18:36:16;10.80;99.90
66088;DHT22;52872;52.994;6.940;2023-03-20T18:38:44;10.90;99.90
66088;DHT22;52872;52.994;6.940;2023-03-20T18:41:11;10.80;99.90
66088;DHT22;52872;52.994;6.940;2023-03-20T18:43:39;10.90;99.90
66088;DHT22;52872;52.994;6.940;2023-03-20T18:46:10;10.80;99.90
66088;DHT22;52872;52.994;6.940;2023-03-20T18:48:38;10.80;99.90
66088;DHT22;52872;52.994;6.940;2023-03-20T18:51:05;10.80;99.90
66088;DHT22;52872;52.994;6.940;2023-03-20T18:53:32;10.90;99.90
66088;DHT22;52872;52.994;6.940;2023-03-20T18:55:59;10.90;99.90